sensor_id;sensor_type;location;lat;lon;timestamp;P1;durP1;ratioP1;P2;durP2;ratioP2
8060;SDS011;4073;42.626;25.386;2023-09-18T00:02:04;4.13;;;3.67;;
8060;SDS011;4073;42.626;25.386;2023-09-18T00:04:29;9.23;;;3.33;;
8060;SDS011;4073;42.626;25.386;2023-09-18T00:06:55;3.80;;;3.13;;
8060;SDS011;4073;42.626;25.386;2023-09-18T00:09:21;6.37;;;3.30;;
8060;SDS011;4073;42.626;25.386;2023-09-18T00:11:46;5.93;;;3.50;;
8060;SDS011;4073;42.626;25.386;2023-09-18T00:14:12;7.83;;;3.67;;
8060;SDS011;4073;42.626;25.386;2023-09-18T00:16:38;4.07;;;3.00;;
8060;SDS011;4073;42.626;25.386;2023-09-18T00:19:04;4.40;;;3.17;;
8060;SDS011;4073;42.626;25.386;2023-09-18T00:21:31;5.67;;;3.23;;
8060;SDS011;4073;42.626;25.386;2023-09-18T00:23:57;4.93;;;3.13;;
8060;SDS011;4073;42.626;25.386;2023-09-18T00:26:25;7.03;;;3.67;;
8060;SDS011;4073;42.626;25.386;2023-09-18T00:28:50;3.83;;;3.30;;
8060;SDS011;4073;42.626;25.386;2023-09-18T00:31:16;5.60;;;3.60;;
8060;SDS011;4073;42.626;25.386;2023-09-18T00:33:41;7.57;;;3.40;;
8060;SDS011;4073;42.626;25.386;2023-09-18T00:36:07;5.93;;;3.87;;
8060;SDS011;4073;42.626;25.386;2023-09-18T00:38:32;7.17;;;3.33;;
8060;SDS011;4073;42.626;25.386;2023-09-18T00:40:57;4.17;;;3.57;;
8060;SDS011;4073;42.626;25.386;2023-09-18T00:43:23;7.23;;;3.80;;
8060;SDS011;4073;42.626;25.386;2023-09-18T00:45:48;6.57;;;3.97;;
8060;SDS011;4073;42.626;25.386;2023-09-18T00:48:14;6.50;;;4.33;;
8060;SDS011;4073;42.626;25.386;2023-09-18T00:50:41;4.27;;;3.33;;
8060;SDS011;4073;42.626;25.386;2023-09-18T00:53:11;7.17;;;3.63;;
8060;SDS011;4073;42.626;25.386;2023-09-18T00:55:42;6.63;;;3.53;;
8060;SDS011;4073;42.626;25.386;2023-09-18T00:58:08;4.60;;;3.30;;
8060;SDS011;4073;42.626;25.386;2023-09-18T01:00:34;3.80;;;3.40;;
8060;SDS011;4073;42.626;25.386;2023-09-18T01:03:00;5.20;;;3.20;;
8060;SDS011;4073;42.626;25.386;2023-09-18T01:05:26;6.23;;;3.60;;
8060;SDS011;4073;42.626;25.386;2023-09-18T01:07:52;8.23;;;3.43;;
8060;SDS011;4073;42.626;25.386;2023-09-18T01:10:17;5.80;;;3.13;;
8060;SDS011;4073;42.626;25.386;2023-09-18T01:12:48;7.37;;;3.33;;
8060;SDS011;4073;42.626;25.386;2023-09-18T01:15:24;5.47;;;3.30;;
8060;SDS011;4073;42.626;25.386;2023-09-18T01:17:55;5.90;;;3.60;;
8060;SDS011;4073;42.626;25.386;2023-09-18T01:20:20;5.57;;;3.40;;
8060;SDS011;4073;42.626;25.386;2023-09-18T01:22:46;4.00;;;3.00;;
8060;SDS011;4073;42.626;25.386;2023-09-18T01:25:11;6.43;;;3.10;;
8060;SDS011;4073;42.626;25.386;2023-09-18T01:27:37;5.80;;;3.40;;
8060;SDS011;4073;42.626;25.386;2023-09-18T01:30:02;6.73;;;3.60;;
8060;SDS011;4073;42.626;25.386;2023-09-18T01:32:29;5.53;;;3.70;;
8060;SDS011;4073;42.626;25.386;2023-09-18T01:34:57;4.43;;;3.57;;
8060;SDS011;4073;42.626;25.386;2023-09-18T01:37:28;5.10;;;3.30;;
8060;SDS011;4073;42.626;25.386;2023-09-18T01:39:56;4.37;;;3.50;;
8060;SDS011;4073;42.626;25.386;2023-09-18T01:42:25;4.33;;;3.60;;
8060;SDS011;4073;42.626;25.386;2023-09-18T01:44:52;3.80;;;3.50;;
8060;SDS011;4073;42.626;25.386;2023-09-18T01:47:19;6.47;;;3.30;;
8060;SDS011;4073;42.626;25.386;2023-09-18T01:49:46;4.53;;;2.87;;
8060;SDS011;4073;42.626;25.386;2023-09-18T01:52:12;5.37;;;3.33;;
8060;SDS011;4073;42.626;25.386;2023-09-18T01:54:37;5.67;;;3.33;;
8060;SDS011;4073;42.626;25.386;2023-09-18T01:57:03;3.73;;;3.33;;
8060;SDS011;4073;42.626;25.386;2023-09-18T01:59:30;4.63;;;3.50;;
8060;SDS011;4073;42.626;25.386;2023-09-18T02:01:55;5.83;;;3.43;;
8060;SDS011;4073;42.626;25.386;2023-09-18T02:04:21;4.57;;;3.37;;
8060;SDS011;4073;42.626;25.386;2023-09-18T02:06:47;3.63;;;3.33;;
8060;SDS011;4073;42.626;25.386;2023-09-18T02:09:14;6.90;;;3.70;;
8060;SDS011;4073;42.626;25.386;2023-09-18T02:11:40;5.20;;;3.43;;
8060;SDS011;4073;42.626;25.386;2023-09-18T02:14:07;4.67;;;3.63;;
8060;SDS011;4073;42.626;25.386;2023-09-18T02:16:34;4.83;;;3.57;;
8060;SDS011;4073;42.626;25.386;2023-09-18T02:19:04;3.87;;;3.17;;
8060;SDS011;4073;42.626;25.386;2023-09-18T02:21:30;3.97;;;3.07;;
8060;SDS011;4073;42.626;25.386;2023-09-18T02:23:56;3.43;;;3.00;;
8060;SDS011;4073;42.626;25.386;2023-09-18T02:26:22;3.90;;;3.50;;
8060;SDS011;4073;42.626;25.386;2023-09-18T02:28:49;12.57;;;4.17;;
8060;SDS011;4073;42.626;25.386;2023-09-18T02:31:16;5.67;;;3.77;;
8060;SDS011;4073;42.626;25.386;2023-09-18T02:33:42;4.77;;;3.87;;
8060;SDS011;4073;42.626;25.386;2023-09-18T02:36:08;4.83;;;3.60;;
8060;SDS011;4073;42.626;25.386;2023-09-18T02:38:33;6.37;;;3.43;;
8060;SDS011;4073;42.626;25.386;2023-09-18T02:40:59;6.83;;;3.73;;
8060;SDS011;4073;42.626;25.386;2023-09-18T02:43:25;5.90;;;3.47;;
8060;SDS011;4073;42.626;25.386;2023-09-18T02:45:51;3.47;;;3.17;;
8060;SDS011;4073;42.626;25.386;2023-09-18T02:48:17;5.33;;;3.70;;
8060;SDS011;4073;42.626;25.386;2023-09-18T02:50:42;5.07;;;3.77;;
8060;SDS011;4073;42.626;25.386;2023-09-18T02:53:17;8.50;;;4.33;;
8060;SDS011;4073;42.626;25.386;2023-09-18T02:55:43;4.90;;;3.33;;
8060;SDS011;4073;42.626;25.386;2023-09-18T02:58:08;6.33;;;4.13;;
8060;SDS011;4073;42.626;25.386;2023-09-18T03:00:35;5.60;;;3.80;;
8060;SDS011;4073;42.626;25.386;2023-09-18T03:03:06;7.63;;;3.97;;
8060;SDS011;4073;42.626;25.386;2023-09-18T03:05:32;7.40;;;4.17;;
8060;SDS011;4073;42.626;25.386;2023-09-18T03:07:57;8.13;;;4.33;;
8060;SDS011;4073;42.626;25.386;2023-09-18T03:10:23;9.87;;;4.30;;
8060;SDS011;4073;42.626;25.386;2023-09-18T03:12:48;6.90;;;4.63;;
8060;SDS011;4073;42.626;25.386;2023-09-18T03:15:14;5.63;;;3.63;;
8060;SDS011;4073;42.626;25.386;2023-09-18T03:17:39;6.67;;;4.20;;
8060;SDS011;4073;42.626;25.386;2023-09-18T03:20:07;4.93;;;4.10;;
8060;SDS011;4073;42.626;25.386;2023-09-18T03:22:33;8.20;;;5.20;;
8060;SDS011;4073;42.626;25.386;2023-09-18T03:24:59;4.17;;;3.67;;
8060;SDS011;4073;42.626;25.386;2023-09-18T03:27:25;5.37;;;4.30;;
8060;SDS011;4073;42.626;25.386;2023-09-18T03:29:54;6.60;;;4.23;;
8060;SDS011;4073;42.626;25.386;2023-09-18T03:32:28;7.47;;;4.27;;
8060;SDS011;4073;42.626;25.386;2023-09-18T03:34:53;9.83;;;4.70;;
8060;SDS011;4073;42.626;25.386;2023-09-18T03:37:19;7.13;;;4.37;;
8060;SDS011;4073;42.626;25.386;2023-09-18T03:39:44;7.87;;;4.77;;
8060;SDS011;4073;42.626;25.386;2023-09-18T03:42:10;9.23;;;4.97;;
8060;SDS011;4073;42.626;25.386;2023-09-18T03:44:35;7.17;;;4.37;;
8060;SDS011;4073;42.626;25.386;2023-09-18T03:47:01;5.90;;;4.50;;
8060;SDS011;4073;42.626;25.386;2023-09-18T03:49:28;4.60;;;4.00;;
8060;SDS011;4073;42.626;25.386;2023-09-18T03:51:53;4.87;;;4.37;;
8060;SDS011;4073;42.626;25.386;2023-09-18T03:54:19;6.33;;;3.90;;
8060;SDS011;4073;42.626;25.386;2023-09-18T03:56:44;4.67;;;3.63;;
8060;SDS011;4073;42.626;25.386;2023-09-18T03:59:11;5.80;;;4.70;;
8060;SDS011;4073;42.626;25.386;2023-09-18T04:01:37;5.80;;;3.60;;
8060;SDS011;4073;42.626;25.386;2023-09-18T04:04:02;4.47;;;3.43;;
8060;SDS011;4073;42.626;25.386;2023-09-18T04:06:35;7.23;;;4.00;;
8060;SDS011;4073;42.626;25.386;2023-09-18T04:09:01;5.57;;;4.20;;
8060;SDS011;4073;42.626;25.386;2023-09-18T04:11:27;7.47;;;4.07;;
8060;SDS011;4073;42.626;25.386;2023-09-18T04:13:53;8.40;;;4.13;;
8060;SDS011;4073;42.626;25.386;2023-09-18T04:16:21;4.97;;;4.03;;
8060;SDS011;4073;42.626;25.386;2023-09-18T04:18:47;10.43;;;5.37;;
8060;SDS011;4073;42.626;25.386;2023-09-18T04:21:12;8.90;;;5.53;;
8060;SDS011;4073;42.626;25.386;2023-09-18T04:23:38;12.23;;;4.97;;
8060;SDS011;4073;42.626;25.386;2023-09-18T04:26:03;9.30;;;5.00;;
8060;SDS011;4073;42.626;25.386;2023-09-18T04:28:29;8.60;;;4.97;;
8060;SDS011;4073;42.626;25.386;2023-09-18T04:30:54;7.63;;;5.00;;
8060;SDS011;4073;42.626;25.386;2023-09-18T04:33:20;10.77;;;5.60;;
8060;SDS011;4073;42.626;25.386;2023-09-18T04:35:46;7.50;;;5.00;;
8060;SDS011;4073;42.626;25.386;2023-09-18T04:38:12;6.13;;;4.70;;
8060;SDS011;4073;42.626;25.386;2023-09-18T04:40:40;6.07;;;4.80;;
8060;SDS011;4073;42.626;25.386;2023-09-18T04:43:05;8.57;;;5.80;;
8060;SDS011;4073;42.626;25.386;2023-09-18T04:45:31;7.17;;;4.60;;
8060;SDS011;4073;42.626;25.386;2023-09-18T04:47:57;8.57;;;4.40;;
8060;SDS011;4073;42.626;25.386;2023-09-18T04:50:23;10.73;;;4.80;;
8060;SDS011;4073;42.626;25.386;2023-09-18T04:52:48;7.60;;;4.13;;
8060;SDS011;4073;42.626;25.386;2023-09-18T04:55:15;4.80;;;3.50;;
8060;SDS011;4073;42.626;25.386;2023-09-18T04:57:41;8.47;;;3.90;;
8060;SDS011;4073;42.626;25.386;2023-09-18T05:00:07;6.73;;;3.60;;
8060;SDS011;4073;42.626;25.386;2023-09-18T05:02:33;3.87;;;3.57;;
8060;SDS011;4073;42.626;25.386;2023-09-18T05:04:59;5.90;;;3.63;;
8060;SDS011;4073;42.626;25.386;2023-09-18T05:07:25;4.37;;;3.73;;
8060;SDS011;4073;42.626;25.386;2023-09-18T05:09:51;7.80;;;3.93;;
8060;SDS011;4073;42.626;25.386;2023-09-18T05:12:17;9.73;;;5.00;;
8060;SDS011;4073;42.626;25.386;2023-09-18T05:14:43;6.10;;;3.77;;
8060;SDS011;4073;42.626;25.386;2023-09-18T05:17:13;10.67;;;4.50;;
8060;SDS011;4073;42.626;25.386;2023-09-18T05:19:40;7.17;;;4.90;;
8060;SDS011;4073;42.626;25.386;2023-09-18T05:22:05;8.00;;;4.70;;
8060;SDS011;4073;42.626;25.386;2023-09-18T05:24:31;5.67;;;4.03;;
8060;SDS011;4073;42.626;25.386;2023-09-18T05:26:57;7.83;;;4.60;;
8060;SDS011;4073;42.626;25.386;2023-09-18T05:29:22;8.53;;;5.63;;
8060;SDS011;4073;42.626;25.386;2023-09-18T05:31:49;6.67;;;4.70;;
8060;SDS011;4073;42.626;25.386;2023-09-18T05:34:14;8.07;;;4.10;;
8060;SDS011;4073;42.626;25.386;2023-09-18T05:36:40;7.93;;;4.10;;
8060;SDS011;4073;42.626;25.386;2023-09-18T05:39:05;5.97;;;4.17;;
8060;SDS011;4073;42.626;25.386;2023-09-18T05:41:35;7.83;;;4.37;;
8060;SDS011;4073;42.626;25.386;2023-09-18T05:44:01;5.83;;;3.90;;
8060;SDS011;4073;42.626;25.386;2023-09-18T05:46:28;7.60;;;4.50;;
8060;SDS011;4073;42.626;25.386;2023-09-18T05:48:54;6.47;;;4.27;;
8060;SDS011;4073;42.626;25.386;2023-09-18T05:51:22;7.77;;;5.10;;
8060;SDS011;4073;42.626;25.386;2023-09-18T05:53:47;7.13;;;5.10;;
8060;SDS011;4073;42.626;25.386;2023-09-18T05:56:13;5.40;;;4.70;;
8060;SDS011;4073;42.626;25.386;2023-09-18T05:58:39;9.57;;;4.80;;
8060;SDS011;4073;42.626;25.386;2023-09-18T06:01:06;8.03;;;4.37;;
8060;SDS011;4073;42.626;25.386;2023-09-18T06:03:32;4.87;;;4.20;;
8060;SDS011;4073;42.626;25.386;2023-09-18T06:06:03;4.43;;;3.60;;
8060;SDS011;4073;42.626;25.386;2023-09-18T06:08:29;6.13;;;3.70;;
8060;SDS011;4073;42.626;25.386;2023-09-18T06:10:58;5.57;;;3.93;;
8060;SDS011;4073;42.626;25.386;2023-09-18T06:13:24;4.57;;;3.80;;
8060;SDS011;4073;42.626;25.386;2023-09-18T06:15:50;6.33;;;3.53;;
8060;SDS011;4073;42.626;25.386;2023-09-18T06:18:17;5.77;;;3.13;;
8060;SDS011;4073;42.626;25.386;2023-09-18T06:20:45;3.50;;;3.20;;
8060;SDS011;4073;42.626;25.386;2023-09-18T06:23:11;6.27;;;3.63;;
8060;SDS011;4073;42.626;25.386;2023-09-18T06:25:37;5.43;;;3.57;;
8060;SDS011;4073;42.626;25.386;2023-09-18T06:28:03;4.00;;;3.53;;
8060;SDS011;4073;42.626;25.386;2023-09-18T06:30:29;6.07;;;3.43;;
8060;SDS011;4073;42.626;25.386;2023-09-18T06:32:59;5.03;;;3.80;;
8060;SDS011;4073;42.626;25.386;2023-09-18T06:35:26;5.63;;;3.37;;
8060;SDS011;4073;42.626;25.386;2023-09-18T06:37:51;6.43;;;4.23;;
8060;SDS011;4073;42.626;25.386;2023-09-18T06:40:19;7.03;;;4.30;;
8060;SDS011;4073;42.626;25.386;2023-09-18T06:42:44;6.60;;;3.70;;
8060;SDS011;4073;42.626;25.386;2023-09-18T06:45:10;5.50;;;3.77;;
8060;SDS011;4073;42.626;25.386;2023-09-18T06:47:36;4.50;;;3.47;;
8060;SDS011;4073;42.626;25.386;2023-09-18T06:50:02;11.27;;;4.00;;
8060;SDS011;4073;42.626;25.386;2023-09-18T06:52:30;6.47;;;3.47;;
8060;SDS011;4073;42.626;25.386;2023-09-18T06:54:55;4.13;;;3.10;;
8060;SDS011;4073;42.626;25.386;2023-09-18T06:57:22;4.97;;;3.37;;
8060;SDS011;4073;42.626;25.386;2023-09-18T06:59:48;10.23;;;3.80;;
8060;SDS011;4073;42.626;25.386;2023-09-18T07:02:13;8.10;;;4.00;;
8060;SDS011;4073;42.626;25.386;2023-09-18T07:04:40;8.57;;;4.73;;
8060;SDS011;4073;42.626;25.386;2023-09-18T07:07:10;4.40;;;4.00;;
8060;SDS011;4073;42.626;25.386;2023-09-18T07:09:39;5.37;;;3.60;;
8060;SDS011;4073;42.626;25.386;2023-09-18T07:12:08;6.73;;;2.87;;
8060;SDS011;4073;42.626;25.386;2023-09-18T07:14:37;5.17;;;3.47;;
8060;SDS011;4073;42.626;25.386;2023-09-18T07:17:03;4.07;;;3.10;;
8060;SDS011;4073;42.626;25.386;2023-09-18T07:19:29;6.57;;;3.60;;
8060;SDS011;4073;42.626;25.386;2023-09-18T07:21:54;5.30;;;3.70;;
8060;SDS011;4073;42.626;25.386;2023-09-18T07:24:20;7.67;;;3.43;;
8060;SDS011;4073;42.626;25.386;2023-09-18T07:26:46;4.90;;;3.50;;
8060;SDS011;4073;42.626;25.386;2023-09-18T07:29:15;5.50;;;4.03;;
8060;SDS011;4073;42.626;25.386;2023-09-18T07:31:41;4.07;;;3.60;;
8060;SDS011;4073;42.626;25.386;2023-09-18T07:34:07;5.33;;;2.90;;
8060;SDS011;4073;42.626;25.386;2023-09-18T07:36:33;4.83;;;3.57;;
8060;SDS011;4073;42.626;25.386;2023-09-18T07:38:59;6.43;;;3.70;;
8060;SDS011;4073;42.626;25.386;2023-09-18T07:41:24;4.53;;;2.73;;
8060;SDS011;4073;42.626;25.386;2023-09-18T07:43:50;7.80;;;3.47;;
8060;SDS011;4073;42.626;25.386;2023-09-18T07:46:16;3.83;;;2.87;;
8060;SDS011;4073;42.626;25.386;2023-09-18T07:48:41;4.03;;;3.20;;
8060;SDS011;4073;42.626;25.386;2023-09-18T07:51:10;3.40;;;3.00;;
8060;SDS011;4073;42.626;25.386;2023-09-18T07:53:36;4.47;;;3.40;;
8060;SDS011;4073;42.626;25.386;2023-09-18T07:56:02;5.33;;;2.93;;
8060;SDS011;4073;42.626;25.386;2023-09-18T07:58:29;5.53;;;3.20;;
8060;SDS011;4073;42.626;25.386;2023-09-18T08:00:55;3.50;;;2.50;;
8060;SDS011;4073;42.626;25.386;2023-09-18T08:03:22;5.27;;;2.80;;
8060;SDS011;4073;42.626;25.386;2023-09-18T08:05:51;5.50;;;3.57;;
8060;SDS011;4073;42.626;25.386;2023-09-18T08:08:18;5.00;;;3.40;;
8060;SDS011;4073;42.626;25.386;2023-09-18T08:10:48;5.00;;;3.57;;
8060;SDS011;4073;42.626;25.386;2023-09-18T08:13:14;3.57;;;3.27;;
8060;SDS011;4073;42.626;25.386;2023-09-18T08:15:40;5.17;;;2.97;;
8060;SDS011;4073;42.626;25.386;2023-09-18T08:18:07;4.77;;;3.10;;
8060;SDS011;4073;42.626;25.386;2023-09-18T08:20:32;4.23;;;3.20;;
8060;SDS011;4073;42.626;25.386;2023-09-18T08:22:58;6.83;;;3.30;;
8060;SDS011;4073;42.626;25.386;2023-09-18T08:25:30;3.10;;;2.80;;
8060;SDS011;4073;42.626;25.386;2023-09-18T08:27:56;5.87;;;3.13;;
8060;SDS011;4073;42.626;25.386;2023-09-18T08:30:21;3.10;;;2.80;;
8060;SDS011;4073;42.626;25.386;2023-09-18T08:32:47;5.13;;;2.93;;
8060;SDS011;4073;42.626;25.386;2023-09-18T08:35:12;4.90;;;3.10;;
8060;SDS011;4073;42.626;25.386;2023-09-18T08:37:39;5.10;;;3.23;;
8060;SDS011;4073;42.626;25.386;2023-09-18T08:40:06;3.50;;;2.97;;
8060;SDS011;4073;42.626;25.386;2023-09-18T08:42:35;3.67;;;2.90;;
8060;SDS011;4073;42.626;25.386;2023-09-18T08:45:03;7.73;;;5.27;;
8060;SDS011;4073;42.626;25.386;2023-09-18T08:47:37;7.40;;;4.40;;
8060;SDS011;4073;42.626;25.386;2023-09-18T08:50:05;2.77;;;2.57;;
8060;SDS011;4073;42.626;25.386;2023-09-18T08:52:32;3.33;;;3.03;;
8060;SDS011;4073;42.626;25.386;2023-09-18T08:54:58;2.90;;;2.60;;
8060;SDS011;4073;42.626;25.386;2023-09-18T08:57:25;5.00;;;2.70;;
8060;SDS011;4073;42.626;25.386;2023-09-18T08:59:53;5.50;;;3.13;;
8060;SDS011;4073;42.626;25.386;2023-09-18T09:02:21;3.90;;;2.60;;
8060;SDS011;4073;42.626;25.386;2023-09-18T09:04:47;3.57;;;2.97;;
8060;SDS011;4073;42.626;25.386;2023-09-18T09:07:12;4.03;;;2.70;;
8060;SDS011;4073;42.626;25.386;2023-09-18T09:09:38;2.80;;;2.43;;
8060;SDS011;4073;42.626;25.386;2023-09-18T09:12:04;3.93;;;2.00;;
8060;SDS011;4073;42.626;25.386;2023-09-18T09:14:29;2.90;;;2.40;;
8060;SDS011;4073;42.626;25.386;2023-09-18T09:16:55;2.50;;;2.30;;
8060;SDS011;4073;42.626;25.386;2023-09-18T09:19:31;2.57;;;2.37;;
8060;SDS011;4073;42.626;25.386;2023-09-18T09:22:00;2.60;;;2.40;;
8060;SDS011;4073;42.626;25.386;2023-09-18T09:24:39;2.77;;;2.20;;
8060;SDS011;4073;42.626;25.386;2023-09-18T09:27:06;2.67;;;2.03;;
8060;SDS011;4073;42.626;25.386;2023-09-18T09:29:33;2.37;;;2.17;;
8060;SDS011;4073;42.626;25.386;2023-09-18T09:32:12;4.03;;;2.00;;
8060;SDS011;4073;42.626;25.386;2023-09-18T09:34:40;3.60;;;2.60;;
8060;SDS011;4073;42.626;25.386;2023-09-18T09:37:31;2.60;;;1.97;;
8060;SDS011;4073;42.626;25.386;2023-09-18T09:39:57;2.33;;;2.13;;
8060;SDS011;4073;42.626;25.386;2023-09-18T09:42:38;3.17;;;2.23;;
8060;SDS011;4073;42.626;25.386;2023-09-18T09:45:04;2.57;;;2.20;;
8060;SDS011;4073;42.626;25.386;2023-09-18T09:47:36;3.10;;;2.40;;
8060;SDS011;4073;42.626;25.386;2023-09-18T09:50:10;3.23;;;2.63;;
8060;SDS011;4073;42.626;25.386;2023-09-18T09:52:45;3.30;;;2.27;;
8060;SDS011;4073;42.626;25.386;2023-09-18T09:55:21;3.57;;;2.53;;
8060;SDS011;4073;42.626;25.386;2023-09-18T09:57:57;3.37;;;2.70;;
8060;SDS011;4073;42.626;25.386;2023-09-18T10:00:31;3.43;;;2.27;;
8060;SDS011;4073;42.626;25.386;2023-09-18T10:03:19;3.00;;;2.70;;
8060;SDS011;4073;42.626;25.386;2023-09-18T10:05:46;3.33;;;2.50;;
8060;SDS011;4073;42.626;25.386;2023-09-18T10:10:52;2.53;;;2.13;;
8060;SDS011;4073;42.626;25.386;2023-09-18T10:15:44;2.97;;;2.40;;
8060;SDS011;4073;42.626;25.386;2023-09-18T10:21:38;2.50;;;2.30;;
8060;SDS011;4073;42.626;25.386;2023-09-18T10:26:39;3.20;;;2.50;;
8060;SDS011;4073;42.626;25.386;2023-09-18T10:29:12;2.67;;;2.47;;
8060;SDS011;4073;42.626;25.386;2023-09-18T10:31:39;2.50;;;2.30;;
8060;SDS011;4073;42.626;25.386;2023-09-18T10:34:09;4.37;;;2.37;;
8060;SDS011;4073;42.626;25.386;2023-09-18T10:36:36;2.90;;;2.60;;
8060;SDS011;4073;42.626;25.386;2023-09-18T10:39:03;3.33;;;2.80;;
8060;SDS011;4073;42.626;25.386;2023-09-18T10:41:33;3.23;;;2.10;;
8060;SDS011;4073;42.626;25.386;2023-09-18T10:43:59;3.03;;;2.73;;
8060;SDS011;4073;42.626;25.386;2023-09-18T10:46:26;2.50;;;2.30;;
8060;SDS011;4073;42.626;25.386;2023-09-18T10:48:52;2.53;;;2.17;;
8060;SDS011;4073;42.626;25.386;2023-09-18T10:51:20;5.93;;;2.60;;
8060;SDS011;4073;42.626;25.386;2023-09-18T10:53:47;2.70;;;2.50;;
8060;SDS011;4073;42.626;25.386;2023-09-18T10:56:16;2.90;;;2.60;;
8060;SDS011;4073;42.626;25.386;2023-09-18T10:58:42;3.33;;;2.50;;
8060;SDS011;4073;42.626;25.386;2023-09-18T11:01:10;2.17;;;1.93;;
8060;SDS011;4073;42.626;25.386;2023-09-18T11:03:38;2.80;;;2.23;;
8060;SDS011;4073;42.626;25.386;2023-09-18T11:06:07;3.90;;;2.33;;
8060;SDS011;4073;42.626;25.386;2023-09-18T11:08:51;2.40;;;2.20;;
8060;SDS011;4073;42.626;25.386;2023-09-18T11:11:26;3.93;;;2.20;;
8060;SDS011;4073;42.626;25.386;2023-09-18T11:13:54;2.43;;;2.23;;
8060;SDS011;4073;42.626;25.386;2023-09-18T11:18:53;3.67;;;3.10;;
8060;SDS011;4073;42.626;25.386;2023-09-18T11:21:30;2.67;;;2.47;;
8060;SDS011;4073;42.626;25.386;2023-09-18T11:23:58;5.77;;;3.00;;
8060;SDS011;4073;42.626;25.386;2023-09-18T11:26:28;2.63;;;2.30;;
8060;SDS011;4073;42.626;25.386;2023-09-18T11:29:00;4.73;;;2.37;;
8060;SDS011;4073;42.626;25.386;2023-09-18T11:31:49;3.07;;;2.40;;
8060;SDS011;4073;42.626;25.386;2023-09-18T11:36:46;3.23;;;2.60;;
8060;SDS011;4073;42.626;25.386;2023-09-18T11:39:11;3.17;;;2.87;;
8060;SDS011;4073;42.626;25.386;2023-09-18T11:41:37;3.23;;;2.40;;
8060;SDS011;4073;42.626;25.386;2023-09-18T11:46:35;2.90;;;2.63;;
8060;SDS011;4073;42.626;25.386;2023-09-18T11:49:03;3.60;;;2.77;;
8060;SDS011;4073;42.626;25.386;2023-09-18T11:51:30;3.33;;;2.93;;
8060;SDS011;4073;42.626;25.386;2023-09-18T11:53:57;2.90;;;2.63;;
8060;SDS011;4073;42.626;25.386;2023-09-18T11:56:23;3.37;;;3.07;;
8060;SDS011;4073;42.626;25.386;2023-09-18T11:58:50;4.70;;;2.60;;
8060;SDS011;4073;42.626;25.386;2023-09-18T12:01:17;4.30;;;3.10;;
8060;SDS011;4073;42.626;25.386;2023-09-18T12:03:43;2.83;;;2.53;;
8060;SDS011;4073;42.626;25.386;2023-09-18T12:06:10;3.17;;;2.83;;
8060;SDS011;4073;42.626;25.386;2023-09-18T12:08:38;3.67;;;2.87;;
8060;SDS011;4073;42.626;25.386;2023-09-18T12:11:04;3.93;;;3.03;;
8060;SDS011;4073;42.626;25.386;2023-09-18T12:13:31;4.07;;;2.97;;
8060;SDS011;4073;42.626;25.386;2023-09-18T12:15:57;4.27;;;2.60;;
8060;SDS011;4073;42.626;25.386;2023-09-18T12:18:25;4.33;;;3.30;;
8060;SDS011;4073;42.626;25.386;2023-09-18T12:20:53;4.00;;;3.50;;
8060;SDS011;4073;42.626;25.386;2023-09-18T12:23:21;3.60;;;2.90;;
8060;SDS011;4073;42.626;25.386;2023-09-18T12:25:47;6.53;;;3.03;;
8060;SDS011;4073;42.626;25.386;2023-09-18T12:28:15;4.10;;;3.13;;
8060;SDS011;4073;42.626;25.386;2023-09-18T12:30:42;4.83;;;3.53;;
8060;SDS011;4073;42.626;25.386;2023-09-18T12:33:08;3.50;;;3.00;;
8060;SDS011;4073;42.626;25.386;2023-09-18T12:35:35;3.47;;;3.00;;
8060;SDS011;4073;42.626;25.386;2023-09-18T12:38:03;3.30;;;2.63;;
8060;SDS011;4073;42.626;25.386;2023-09-18T12:40:39;4.50;;;3.00;;
8060;SDS011;4073;42.626;25.386;2023-09-18T12:43:05;3.70;;;2.90;;
8060;SDS011;4073;42.626;25.386;2023-09-18T12:45:31;4.30;;;3.40;;
8060;SDS011;4073;42.626;25.386;2023-09-18T12:47:57;3.97;;;3.33;;
8060;SDS011;4073;42.626;25.386;2023-09-18T12:50:24;3.13;;;2.93;;
8060;SDS011;4073;42.626;25.386;2023-09-18T12:52:50;3.43;;;3.13;;
8060;SDS011;4073;42.626;25.386;2023-09-18T12:55:21;7.27;;;3.63;;
8060;SDS011;4073;42.626;25.386;2023-09-18T12:57:52;5.07;;;3.50;;
8060;SDS011;4073;42.626;25.386;2023-09-18T13:00:19;4.70;;;3.47;;
8060;SDS011;4073;42.626;25.386;2023-09-18T13:02:48;3.67;;;3.37;;
8060;SDS011;4073;42.626;25.386;2023-09-18T13:05:19;5.37;;;2.90;;
8060;SDS011;4073;42.626;25.386;2023-09-18T13:07:46;3.53;;;3.23;;
8060;SDS011;4073;42.626;25.386;2023-09-18T13:10:12;5.20;;;3.73;;
8060;SDS011;4073;42.626;25.386;2023-09-18T13:15:08;4.07;;;3.43;;
8060;SDS011;4073;42.626;25.386;2023-09-18T13:17:41;4.33;;;3.87;;
8060;SDS011;4073;42.626;25.386;2023-09-18T13:20:14;3.50;;;3.20;;
8060;SDS011;4073;42.626;25.386;2023-09-18T13:22:41;3.90;;;3.60;;
8060;SDS011;4073;42.626;25.386;2023-09-18T13:25:10;3.97;;;3.30;;
8060;SDS011;4073;42.626;25.386;2023-09-18T13:27:36;5.07;;;3.57;;
8060;SDS011;4073;42.626;25.386;2023-09-18T13:30:04;5.67;;;3.50;;
8060;SDS011;4073;42.626;25.386;2023-09-18T13:32:34;4.53;;;3.40;;
8060;SDS011;4073;42.626;25.386;2023-09-18T13:35:00;4.23;;;3.50;;
8060;SDS011;4073;42.626;25.386;2023-09-18T13:37:26;3.57;;;3.27;;
8060;SDS011;4073;42.626;25.386;2023-09-18T13:39:54;3.90;;;3.53;;
8060;SDS011;4073;42.626;25.386;2023-09-18T13:42:19;5.10;;;3.77;;
8060;SDS011;4073;42.626;25.386;2023-09-18T13:44:45;5.00;;;3.80;;
8060;SDS011;4073;42.626;25.386;2023-09-18T13:47:12;4.20;;;3.80;;
8060;SDS011;4073;42.626;25.386;2023-09-18T13:49:38;4.00;;;3.60;;
8060;SDS011;4073;42.626;25.386;2023-09-18T13:52:03;4.57;;;3.70;;
8060;SDS011;4073;42.626;25.386;2023-09-18T13:54:29;4.20;;;3.40;;
8060;SDS011;4073;42.626;25.386;2023-09-18T13:56:54;4.07;;;3.63;;
8060;SDS011;4073;42.626;25.386;2023-09-18T13:59:21;6.13;;;4.30;;
8060;SDS011;4073;42.626;25.386;2023-09-18T14:01:46;4.67;;;4.27;;
8060;SDS011;4073;42.626;25.386;2023-09-18T14:04:12;4.20;;;3.80;;
8060;SDS011;4073;42.626;25.386;2023-09-18T14:06:37;4.97;;;4.27;;
8060;SDS011;4073;42.626;25.386;2023-09-18T14:09:03;4.37;;;3.97;;
8060;SDS011;4073;42.626;25.386;2023-09-18T14:11:30;6.00;;;4.20;;
8060;SDS011;4073;42.626;25.386;2023-09-18T14:13:56;4.37;;;3.97;;
8060;SDS011;4073;42.626;25.386;2023-09-18T14:16:21;5.50;;;3.67;;
8060;SDS011;4073;42.626;25.386;2023-09-18T14:18:47;4.00;;;3.70;;
8060;SDS011;4073;42.626;25.386;2023-09-18T14:21:12;4.93;;;4.30;;
8060;SDS011;4073;42.626;25.386;2023-09-18T14:23:38;3.90;;;3.60;;
8060;SDS011;4073;42.626;25.386;2023-09-18T14:26:03;4.17;;;3.87;;
8060;SDS011;4073;42.626;25.386;2023-09-18T14:28:29;5.00;;;3.97;;
8060;SDS011;4073;42.626;25.386;2023-09-18T14:30:54;4.20;;;3.77;;
8060;SDS011;4073;42.626;25.386;2023-09-18T14:33:19;4.27;;;3.87;;
8060;SDS011;4073;42.626;25.386;2023-09-18T14:35:45;6.53;;;4.17;;
8060;SDS011;4073;42.626;25.386;2023-09-18T14:38:10;4.57;;;3.80;;
8060;SDS011;4073;42.626;25.386;2023-09-18T14:40:40;5.33;;;4.30;;
8060;SDS011;4073;42.626;25.386;2023-09-18T14:43:07;5.00;;;4.03;;
8060;SDS011;4073;42.626;25.386;2023-09-18T14:45:32;5.23;;;4.57;;
8060;SDS011;4073;42.626;25.386;2023-09-18T14:47:59;4.37;;;3.97;;
8060;SDS011;4073;42.626;25.386;2023-09-18T14:50:25;4.17;;;3.77;;
8060;SDS011;4073;42.626;25.386;2023-09-18T14:52:50;4.60;;;4.20;;
8060;SDS011;4073;42.626;25.386;2023-09-18T14:55:16;3.87;;;3.57;;
8060;SDS011;4073;42.626;25.386;2023-09-18T14:57:41;4.07;;;3.67;;
8060;SDS011;4073;42.626;25.386;2023-09-18T15:00:07;4.80;;;4.30;;
8060;SDS011;4073;42.626;25.386;2023-09-18T15:02:33;6.13;;;4.53;;
8060;SDS011;4073;42.626;25.386;2023-09-18T15:04:59;5.80;;;4.03;;
8060;SDS011;4073;42.626;25.386;2023-09-18T15:07:25;3.90;;;3.60;;
8060;SDS011;4073;42.626;25.386;2023-09-18T15:09:51;7.63;;;4.60;;
8060;SDS011;4073;42.626;25.386;2023-09-18T15:12:17;4.93;;;3.87;;
8060;SDS011;4073;42.626;25.386;2023-09-18T15:14:42;4.50;;;4.10;;
8060;SDS011;4073;42.626;25.386;2023-09-18T15:17:07;4.97;;;4.17;;
8060;SDS011;4073;42.626;25.386;2023-09-18T15:19:33;4.47;;;4.00;;
8060;SDS011;4073;42.626;25.386;2023-09-18T15:21:58;6.67;;;4.30;;